Alexandru Mihaila

Chefscout - Viitorul
25 Nov 2027
Donnerstag
Verarbeitung

Persönlichkeit

Anpassungsfähigkeit (5) Ehrgeiz (14) Kontroverse (10) Loyalität (2) Druck (2) Professionalität (13) Fairness (12) Temperament (1)

Profil

Trainerstil Demokratisch
Lizenz Kontinentale B
Entschlossenheit 5
Menschenführung 8
Motivation 11
Disziplin 10
Arbeitszufriedenheit
99%
Ermüdung
0%
Rolle Chefscout
Gehalt 55.7K p/W
Vertrag 14.03.2029

Leistung

Verhalten Gut
Trainingseffektivität
32%
Spielerentwicklung
25%
Verletzungsprävention
40%
Taktische Umsetzung
35%

Letzte Ereignisse

Nahm an einer Scouting-Besprechung teil 7T her
Nahm an einer Scouting-Besprechung teil 14T her
Nahm an einer Scouting-Besprechung teil 21T her
Nahm an einer Scouting-Besprechung teil 28T her
Nahm an einer Scouting-Besprechung teil 35T her
Nahm an einer Scouting-Besprechung teil 42T her
Nahm an einer Scouting-Besprechung teil 49T her
Nahm an einer Scouting-Besprechung teil 56T her

Aktuell beobachtet

85
Spieler Verein Status Fähigkeit Vertrauen Beobachtet Zuletzt beobachtet Letzte Stimme
Sam Nombe Milton Keynes Dons Aktiv 108 / 104 40% 4 22.07.2027 -
Giacomo Zecca Torres Aktiv 106 / 101 40% 1 22.07.2027 -
Simone Mazzocchi Cosenza Aktiv 116 / 106 40% 2 28.06.2027 -
Leandro Romano Ismaily Verloren 110 / 96 40% 1 28.06.2027 -
Moussa Dembélé CR Belouizdad Aktiv 136 / 144 40% 4 14.06.2027 -
Ronan Hale Gillingham Aktiv 107 / 117 40% 3 14.06.2027 -
Bura Petrolul Aktiv 113 / 92 55% 1 01.06.2027 -
Lorenzo Di Stefano Torres Aktiv 118 / 108 40% 2 30.05.2027 -
Silvio Merkaj Vicenza Aktiv 113 / 108 40% 1 27.05.2027 -
Lewis Morgan SuperSport United Aktiv 129 / 129 40% 6 25.05.2027 -
Lewis McCann Fleetwood Town Aktiv 91 / 100 40% 2 25.05.2027 -
Kelly Saravanan Salford City Aktiv 111 / 119 40% 3 24.05.2027 -
Kyle Wootton Stockport County Aktiv 119 / 124 40% 2 24.05.2027 -
Iwan Morgan Grimsby Town Aktiv 110 / 119 40% 5 21.05.2027 -
Marcus Browne AFC Wimbledon Aktiv 101 / 111 40% 1 21.05.2027 -
Bojan Radulović Huddersfield Town Aktiv 106 / 107 40% 3 20.05.2027 -
Christian Saydee Wigan Athletic Aktiv 117 / 105 40% 4 19.05.2027 -
Josh Koroma Leyton Orient Aktiv 102 / 102 40% 2 19.05.2027 -
Marezi Portsmouth Aktiv 124 / 124 40% 1 16.05.2027 -
Mattia Bortolussi Padova Aktiv 117 / 127 40% 1 16.05.2027 -
Kwame Opoku Asante Kotoko Aktiv 101 / 109 40% 3 12.05.2027 -
Martin Sekulić Ural Aktiv 111 / 111 40% 1 12.05.2027 -
Themba Ngcobo SuperSport United Aktiv 112 / 104 40% 5 11.05.2027 -
Malik Mothersille Stockport County Aktiv 110 / 119 40% 2 09.05.2027 -
Lorent Tolaj Plymouth Argyle Aktiv 129 / 123 40% 3 08.05.2027 -
Alassana Jatta Notts County Aktiv 110 / 105 40% 1 08.05.2027 -
Camillo Tavernelli Arezzo Aktiv 116 / 110 40% 1 06.05.2027 -
Aaron Collins Milton Keynes Dons Aktiv 121 / 123 40% 2 04.05.2027 -
Lee Bonis Chesterfield Aktiv 101 / 97 40% 2 03.05.2027 -
Shayne Lavery Cambridge United Aktiv 111 / 112 40% 3 02.05.2027 -
Stephen Humphrys Bradford City Aktiv 108 / 100 40% 2 30.04.2027 -
Jonathan Gyan Liberty Professionals Aktiv 94 / 86 40% 3 28.04.2027 -
Abu Kamara Portsmouth Aktiv 110 / 120 40% 1 26.04.2027 -
Lamine Guèye Barrow AFC Aktiv 109 / 110 40% 1 23.04.2027 -
Francesco Petito Dolomiti Bellunesi Aktiv 103 / 96 40% 1 23.04.2027 -
Robert Mizo Ashanti Gold Aktiv 112 / 103 40% 1 18.04.2027 -
Mandla Mahlangu Ajax Cape Town Aktiv 119 / 87 40% 2 11.04.2027 -
Victor Adeboyejo Ismaily Aktiv 116 / 93 40% 3 09.04.2027 -
Mostafa Marwan Masr El Makasa Aktiv 104 / 102 40% 1 04.04.2027 -
John Okoye Ebuka Ittihad Aktiv 104 / 108 40% 3 03.04.2027 -
Tyreece Campbell Charlton Athletic Aktiv 110 / 117 40% 1 01.04.2027 -
Jayden Wareham Barnet Aktiv 101 / 102 40% 1 30.03.2027 -
Davis Keillor-Dunn Wrexham Aktiv 109 / 111 40% 1 28.03.2027 -
Aaron Drinan Swindon Town Aktiv 99 / 112 40% 1 27.03.2027 -
Rui Costa Port Vale Aktiv 106 / 117 40% 1 26.03.2027 -
Danyil Alefirenko Chornomorets Aktiv 115 / 115 40% 1 25.03.2027 -
Samuel Tetteh Ashanti Gold Aktiv 96 / 103 40% 1 24.03.2027 -
Mees Rijks Bristol Rovers Aktiv 114 / 107 40% 3 23.03.2027 -
Brayan León Mamelodi Sundowns Aktiv 135 / 129 40% 1 21.03.2027 -
Bernat Guiu Virtus Entella Aktiv 126 / 110 40% 1 20.03.2027 -
Dom Ballard Leyton Orient Aktiv 125 / 118 40% 2 18.03.2027 -
Edarlyn Reyes Arsenal Tula Aktiv 109 / 108 40% 3 16.03.2027 -
Elijah Adebayo Luton Town Aktiv 116 / 125 40% 2 14.03.2027 -
Dany Mota Monza Aktiv 132 / 124 40% 1 13.03.2027 -
Sam Bell Bristol City Aktiv 115 / 129 40% 1 13.03.2027 -
Everton Bala Levski Aktiv 124 / 133 40% 1 11.03.2027 -
Carlton Morris Derby County Aktiv 116 / 121 40% 1 09.03.2027 -
Harry Cornick AFC Wimbledon Aktiv 101 / 96 40% 2 05.03.2027 -
Niall Ennis Blackpool Aktiv 113 / 111 40% 1 02.03.2027 -
Friday Ubong Ashanti Gold Aktiv 92 / 97 40% 1 01.03.2027 -
James Morris Leyton Orient Aktiv 115 / 119 40% 1 07.02.2027 -
Jay Matete Milton Keynes Dons Aktiv 112 / 110 40% 1 07.02.2027 -
Erick Jali Black Aces Aktiv 109 / 119 40% 2 04.02.2027 -
Nathan Moriah-Welsh Mansfield Town Aktiv 104 / 113 40% 1 04.02.2027 -
Carlos Mora Universitatea Craiova Aktiv 115 / 132 40% 1 03.02.2027 -
Dennis Cirkin Queens Park Rangers Aktiv 120 / 126 40% 1 03.02.2027 -
Álex Centelles Levski Aktiv 124 / 115 40% 1 03.02.2027 -
Nikita Kakkoev Nizhniy Novgorod Aktiv 115 / 115 40% 1 01.02.2027 -
Josh Tymon Swansea City Aktiv 132 / 132 40% 1 01.02.2027 -
Nicusor Tanase Pandurii Aktiv 106 / 113 51% 1 25.01.2027 -
Oleksii Hutsuliak Polissia Aktiv 128 / 119 40% 1 03.01.2027 -
Anderson Arroyo Rubin Aktiv 108 / 123 40% 2 07.12.2026 Mehr Infos nötig
Malebogo Modise Polokwane City Aktiv 119 / 102 40% 1 07.12.2026 Mehr Infos nötig
Luca Connell Barnsley Aktiv 119 / 110 40% 1 20.11.2026 -
Rodrigo González Aldosivi Aktiv 137 / 117 40% 1 05.11.2026 -
Ryan Porteous Los Angeles Football Club Aktiv 95 / 130 40% 1 05.11.2026 -
António Eirô Lokomotiv Sofia Aktiv 107 / 121 40% 1 03.11.2026 -
Williams Manyama SuperSport United Aktiv 115 / 109 40% 1 03.11.2026 -
Mihály Kata MTK Budapest Aktiv 109 / 114 40% 1 02.11.2026 -
Francisco Barrios CFR Cluj Aktiv 98 / 99 40% 1 02.11.2026 -
Alexandru Cicaldau Pandurii Aktiv 126 / 107 51% 1 24.08.2026 -
Macaulay Langstaff Millwall Aktiv 104 / 106 40% 1 11.08.2026 -
Juan Manuel Requena Universitario Aktiv 118 / 110 40% 1 03.08.2026 -
Mauricio Márquez Caracas Aktiv 93 / 101 40% 1 02.08.2026 -
Yuki Ohashi Blackburn Rovers Aktiv 119 / 115 40% 1 02.08.2026 -